sensor_id;sensor_type;location;lat;lon;timestamp;pressure;altitude;pressure_sealevel;temperature;humidity
36254;BME280;22291;52.250;21.228;2022-08-11T00:00:34;101184.66;;;14.74;66.52
36254;BME280;22291;52.250;21.228;2022-08-11T00:03:09;101189.28;;;14.74;66.82
36254;BME280;22291;52.250;21.228;2022-08-11T00:08:29;101187.44;;;14.72;67.07
36254;BME280;22291;52.250;21.228;2022-08-11T00:11:01;101186.39;;;14.70;66.85
36254;BME280;22291;52.250;21.228;2022-08-11T00:13:42;101191.05;;;14.70;67.01
36254;BME280;22291;52.250;21.228;2022-08-11T00:16:13;101194.88;;;14.69;67.12
36254;BME280;22291;52.250;21.228;2022-08-11T00:18:44;101189.20;;;14.68;67.25
36254;BME280;22291;52.250;21.228;2022-08-11T00:21:13;101189.03;;;14.64;67.18
36254;BME280;22291;52.250;21.228;2022-08-11T00:23:46;101186.42;;;14.59;67.21
36254;BME280;22291;52.250;21.228;2022-08-11T00:26:20;101188.14;;;14.55;66.99
36254;BME280;22291;52.250;21.228;2022-08-11T00:28:49;101187.49;;;14.49;67.10
36254;BME280;22291;52.250;21.228;2022-08-11T00:31:29;101181.36;;;14.44;66.99
36254;BME280;22291;52.250;21.228;2022-08-11T00:33:58;101182.55;;;14.40;67.41
36254;BME280;22291;52.250;21.228;2022-08-11T00:37:05;101179.11;;;14.37;67.40
36254;BME280;22291;52.250;21.228;2022-08-11T00:39:09;101181.63;;;14.33;67.34
36254;BME280;22291;52.250;21.228;2022-08-11T00:44:49;101185.31;;;14.29;67.81
36254;BME280;22291;52.250;21.228;2022-08-11T00:47:26;101183.44;;;14.27;67.92
36254;BME280;22291;52.250;21.228;2022-08-11T01:02:25;101189.14;;;14.16;68.69
36254;BME280;22291;52.250;21.228;2022-08-11T01:26:17;101181.88;;;14.03;69.14
36254;BME280;22291;52.250;21.228;2022-08-11T01:38:18;101184.78;;;13.95;69.56
36254;BME280;22291;52.250;21.228;2022-08-11T01:40:58;101184.03;;;13.92;69.72
36254;BME280;22291;52.250;21.228;2022-08-11T01:44:12;101185.16;;;13.91;69.74
36254;BME280;22291;52.250;21.228;2022-08-11T01:47:33;101184.65;;;13.89;69.86
36254;BME280;22291;52.250;21.228;2022-08-11T01:53:28;101185.59;;;13.85;69.83
36254;BME280;22291;52.250;21.228;2022-08-11T02:04:35;101185.97;;;13.69;70.11
36254;BME280;22291;52.250;21.228;2022-08-11T02:13:48;101189.11;;;13.62;70.63
36254;BME280;22291;52.250;21.228;2022-08-11T02:16:35;101191.88;;;13.60;70.51
36254;BME280;22291;52.250;21.228;2022-08-11T02:22:48;101191.12;;;13.57;70.90
36254;BME280;22291;52.250;21.228;2022-08-11T02:31:23;101203.58;;;13.47;70.90
36254;BME280;22291;52.250;21.228;2022-08-11T02:45:41;101204.52;;;13.28;70.86
36254;BME280;22291;52.250;21.228;2022-08-11T02:57:40;101202.33;;;13.16;70.89
36254;BME280;22291;52.250;21.228;2022-08-11T03:00:19;101213.23;;;13.14;71.10
36254;BME280;22291;52.250;21.228;2022-08-11T03:02:59;101210.88;;;13.10;71.33
36254;BME280;22291;52.250;21.228;2022-08-11T03:05:36;101216.92;;;13.06;71.44
36254;BME280;22291;52.250;21.228;2022-08-11T03:11:25;101213.74;;;13.02;72.03
36254;BME280;22291;52.250;21.228;2022-08-11T03:14:24;101215.41;;;13.00;71.83
36254;BME280;22291;52.250;21.228;2022-08-11T03:17:36;101214.61;;;13.00;72.05
36254;BME280;22291;52.250;21.228;2022-08-11T03:23:32;101218.19;;;12.98;72.37
36254;BME280;22291;52.250;21.228;2022-08-11T03:31:49;101216.06;;;12.95;73.09
36254;BME280;22291;52.250;21.228;2022-08-11T03:34:21;101218.72;;;12.97;73.13
36254;BME280;22291;52.250;21.228;2022-08-11T03:37:04;101215.17;;;12.99;73.47
36254;BME280;22291;52.250;21.228;2022-08-11T03:39:59;101219.47;;;13.00;73.17
36254;BME280;22291;52.250;21.228;2022-08-11T03:46:11;101223.70;;;13.06;73.77
36254;BME280;22291;52.250;21.228;2022-08-11T03:49:13;101226.13;;;13.08;73.78
36254;BME280;22291;52.250;21.228;2022-08-11T03:51:26;101222.28;;;13.09;73.81
36254;BME280;22291;52.250;21.228;2022-08-11T04:24:36;101217.13;;;13.49;74.34
36254;BME280;22291;52.250;21.228;2022-08-11T04:30:40;101224.80;;;13.58;74.76
36254;BME280;22291;52.250;21.228;2022-08-11T04:33:52;101219.77;;;13.66;74.94
36254;BME280;22291;52.250;21.228;2022-08-11T04:36:40;101226.11;;;13.72;75.14
36254;BME280;22291;52.250;21.228;2022-08-11T04:39:58;101223.18;;;13.82;75.32
36254;BME280;22291;52.250;21.228;2022-08-11T04:55:41;101230.21;;;14.29;75.66
36254;BME280;22291;52.250;21.228;2022-08-11T05:13:26;101233.66;;;14.94;75.73
36254;BME280;22291;52.250;21.228;2022-08-11T05:16:14;101233.30;;;15.07;75.46
36254;BME280;22291;52.250;21.228;2022-08-11T05:19:02;101227.72;;;15.21;75.61
36254;BME280;22291;52.250;21.228;2022-08-11T05:21:52;101224.95;;;15.33;75.56
36254;BME280;22291;52.250;21.228;2022-08-11T05:24:51;101231.30;;;15.48;75.40
36254;BME280;22291;52.250;21.228;2022-08-11T05:31:12;101233.11;;;15.79;74.93
36254;BME280;22291;52.250;21.228;2022-08-11T05:34:14;101232.52;;;15.97;74.79
36254;BME280;22291;52.250;21.228;2022-08-11T05:37:07;101231.95;;;16.15;74.39
36254;BME280;22291;52.250;21.228;2022-08-11T05:39:55;101236.25;;;16.33;74.36
36254;BME280;22291;52.250;21.228;2022-08-11T05:42:38;101227.21;;;16.50;73.80
36254;BME280;22291;52.250;21.228;2022-08-11T05:45:25;101229.55;;;16.69;73.54
36254;BME280;22291;52.250;21.228;2022-08-11T05:48:12;101224.61;;;16.86;73.10
36254;BME280;22291;52.250;21.228;2022-08-11T05:51:00;101224.51;;;17.04;72.88
36254;BME280;22291;52.250;21.228;2022-08-11T05:53:51;101224.19;;;17.20;72.67
36254;BME280;22291;52.250;21.228;2022-08-11T05:56:51;101227.04;;;17.39;72.41
36254;BME280;22291;52.250;21.228;2022-08-11T05:59:23;101224.17;;;17.56;71.81
36254;BME280;22291;52.250;21.228;2022-08-11T06:01:51;101226.55;;;17.72;71.52
36254;BME280;22291;52.250;21.228;2022-08-11T06:04:20;101214.50;;;17.86;71.38
36254;BME280;22291;52.250;21.228;2022-08-11T06:07:00;101213.34;;;18.02;70.95
36254;BME280;22291;52.250;21.228;2022-08-11T06:12:07;101225.17;;;18.33;70.59
36254;BME280;22291;52.250;21.228;2022-08-11T06:14:41;101231.36;;;18.48;70.33
36254;BME280;22291;52.250;21.228;2022-08-11T06:17:09;101228.08;;;18.67;69.88
36254;BME280;22291;52.250;21.228;2022-08-11T06:19:41;101237.70;;;18.86;69.55
36254;BME280;22291;52.250;21.228;2022-08-11T06:22:09;101236.92;;;19.04;69.16
36254;BME280;22291;52.250;21.228;2022-08-11T06:24:40;101236.91;;;19.22;68.62
36254;BME280;22291;52.250;21.228;2022-08-11T06:27:07;101235.72;;;19.42;68.81
36254;BME280;22291;52.250;21.228;2022-08-11T06:29:36;101227.34;;;19.63;68.24
36254;BME280;22291;52.250;21.228;2022-08-11T06:32:07;101227.84;;;19.87;67.75
36254;BME280;22291;52.250;21.228;2022-08-11T06:40:35;101222.77;;;20.56;65.72
36254;BME280;22291;52.250;21.228;2022-08-11T06:46:44;101218.39;;;21.18;64.56
36254;BME280;22291;52.250;21.228;2022-08-11T06:49:19;101223.44;;;21.52;63.84
36254;BME280;22291;52.250;21.228;2022-08-11T06:52:09;101217.37;;;21.81;63.29
36254;BME280;22291;52.250;21.228;2022-08-11T06:54:39;101221.75;;;22.15;62.36
36254;BME280;22291;52.250;21.228;2022-08-11T06:57:10;101209.66;;;22.43;61.89
36254;BME280;22291;52.250;21.228;2022-08-11T06:59:58;101217.02;;;22.72;61.27
36254;BME280;22291;52.250;21.228;2022-08-11T07:02:30;101206.14;;;23.06;60.65
36254;BME280;22291;52.250;21.228;2022-08-11T07:05:09;101212.05;;;23.35;60.03
36254;BME280;22291;52.250;21.228;2022-08-11T07:14:24;101213.97;;;24.36;57.47
36254;BME280;22291;52.250;21.228;2022-08-11T07:17:16;101210.77;;;24.75;56.35
36254;BME280;22291;52.250;21.228;2022-08-11T07:19:54;101214.95;;;25.10;55.62
36254;BME280;22291;52.250;21.228;2022-08-11T07:22:37;101216.70;;;25.40;54.66
36254;BME280;22291;52.250;21.228;2022-08-11T07:25:24;101218.82;;;25.71;53.74
36254;BME280;22291;52.250;21.228;2022-08-11T07:28:16;101216.55;;;25.99;53.01
36254;BME280;22291;52.250;21.228;2022-08-11T07:31:00;101211.62;;;26.27;52.65
36254;BME280;22291;52.250;21.228;2022-08-11T07:33:41;101211.84;;;26.60;51.69
36254;BME280;22291;52.250;21.228;2022-08-11T07:36:15;101218.79;;;26.86;50.70
36254;BME280;22291;52.250;21.228;2022-08-11T07:38:49;101205.63;;;27.15;49.97
36254;BME280;22291;52.250;21.228;2022-08-11T07:41:18;101215.12;;;27.35;48.36
36254;BME280;22291;52.250;21.228;2022-08-11T07:43:53;101210.70;;;27.49;48.06
36254;BME280;22291;52.250;21.228;2022-08-11T07:46:20;101209.81;;;27.66;47.62
36254;BME280;22291;52.250;21.228;2022-08-11T07:49:07;101205.14;;;27.89;47.47
36254;BME280;22291;52.250;21.228;2022-08-11T07:51:53;101204.84;;;28.10;46.66
36254;BME280;22291;52.250;21.228;2022-08-11T07:54:40;101205.23;;;28.35;45.81
36254;BME280;22291;52.250;21.228;2022-08-11T07:57:10;101211.03;;;28.58;45.13
36254;BME280;22291;52.250;21.228;2022-08-11T07:59:56;101200.64;;;28.66;44.40
36254;BME280;22291;52.250;21.228;2022-08-11T08:06:23;101196.22;;;28.68;43.25
36254;BME280;22291;52.250;21.228;2022-08-11T08:09:10;101199.33;;;28.78;42.81
36254;BME280;22291;52.250;21.228;2022-08-11T08:11:56;101200.64;;;28.85;42.51
36254;BME280;22291;52.250;21.228;2022-08-11T08:14:43;101194.22;;;28.92;42.38
36254;BME280;22291;52.250;21.228;2022-08-11T08:17:29;101195.36;;;29.17;42.54
36254;BME280;22291;52.250;21.228;2022-08-11T08:20:19;101188.00;;;29.49;42.59
36254;BME280;22291;52.250;21.228;2022-08-11T08:22:52;101187.59;;;29.82;41.68
36254;BME280;22291;52.250;21.228;2022-08-11T08:25:29;101190.28;;;30.01;40.89
36254;BME280;22291;52.250;21.228;2022-08-11T08:28:00;101193.03;;;30.16;40.18
36254;BME280;22291;52.250;21.228;2022-08-11T08:30:29;101193.41;;;30.30;40.01
36254;BME280;22291;52.250;21.228;2022-08-11T08:33:23;101183.79;;;30.58;39.85
36254;BME280;22291;52.250;21.228;2022-08-11T08:35:54;101184.42;;;30.78;39.20
36254;BME280;22291;52.250;21.228;2022-08-11T08:38:49;101189.70;;;30.84;38.26
36254;BME280;22291;52.250;21.228;2022-08-11T08:41:24;101178.88;;;30.86;37.99
36254;BME280;22291;52.250;21.228;2022-08-11T08:43:58;101190.34;;;30.91;37.59
36254;BME280;22291;52.250;21.228;2022-08-11T08:46:34;101183.98;;;31.03;36.96
36254;BME280;22291;52.250;21.228;2022-08-11T08:49:09;101183.28;;;31.07;36.76
36254;BME280;22291;52.250;21.228;2022-08-11T08:51:42;101184.84;;;31.20;36.62
36254;BME280;22291;52.250;21.228;2022-08-11T08:54:16;101179.66;;;31.38;36.83
36254;BME280;22291;52.250;21.228;2022-08-11T08:56:47;101184.80;;;31.60;36.50
36254;BME280;22291;52.250;21.228;2022-08-11T08:59:14;101183.70;;;31.82;36.21
36254;BME280;22291;52.250;21.228;2022-08-11T09:01:47;101182.05;;;32.01;35.65
36254;BME280;22291;52.250;21.228;2022-08-11T09:04:17;101177.80;;;32.05;34.98
36254;BME280;22291;52.250;21.228;2022-08-11T09:06:45;101174.81;;;32.03;34.78
36254;BME280;22291;52.250;21.228;2022-08-11T09:09:13;101176.75;;;32.23;34.85
36254;BME280;22291;52.250;21.228;2022-08-11T09:11:41;101176.02;;;32.44;34.30
36254;BME280;22291;52.250;21.228;2022-08-11T09:14:32;101169.00;;;32.60;33.77
36254;BME280;22291;52.250;21.228;2022-08-11T09:16:55;101174.40;;;32.84;33.74
36254;BME280;22291;52.250;21.228;2022-08-11T09:19:22;101174.40;;;33.05;33.31
36254;BME280;22291;52.250;21.228;2022-08-11T09:21:51;101191.15;;;33.29;32.89
36254;BME280;22291;52.250;21.228;2022-08-11T09:24:38;101191.15;;;33.29;32.89
36254;BME280;22291;52.250;21.228;2022-08-11T09:27:24;101172.56;;;33.36;32.65
36254;BME280;22291;52.250;21.228;2022-08-11T09:29:51;101171.63;;;33.60;32.32
36254;BME280;22291;52.250;21.228;2022-08-11T09:32:20;101166.03;;;33.85;32.22
36254;BME280;22291;52.250;21.228;2022-08-11T09:34:48;101162.08;;;34.21;32.45
36254;BME280;22291;52.250;21.228;2022-08-11T09:37:16;101162.42;;;34.63;31.63
36254;BME280;22291;52.250;21.228;2022-08-11T09:40:03;101156.92;;;34.55;31.24
36254;BME280;22291;52.250;21.228;2022-08-11T09:42:50;101154.92;;;34.42;31.09
36254;BME280;22291;52.250;21.228;2022-08-11T09:45:37;101153.80;;;33.92;30.25
36254;BME280;22291;52.250;21.228;2022-08-11T09:48:04;101157.33;;;33.28;30.45
36254;BME280;22291;52.250;21.228;2022-08-11T09:50:33;101153.05;;;32.82;31.15
36254;BME280;22291;52.250;21.228;2022-08-11T09:53:00;101139.33;;;32.71;31.42
36254;BME280;22291;52.250;21.228;2022-08-11T09:55:29;101147.52;;;32.49;30.92
36254;BME280;22291;52.250;21.228;2022-08-11T09:57:55;101149.76;;;32.08;31.39
36254;BME280;22291;52.250;21.228;2022-08-11T10:00:42;101149.42;;;31.61;31.49
36254;BME280;22291;52.250;21.228;2022-08-11T10:03:13;101148.83;;;31.14;31.81
36254;BME280;22291;52.250;21.228;2022-08-11T10:05:50;101155.36;;;30.75;32.40
36254;BME280;22291;52.250;21.228;2022-08-11T10:08:41;101150.81;;;30.61;33.61
36254;BME280;22291;52.250;21.228;2022-08-11T10:11:11;101152.02;;;31.04;33.95
36254;BME280;22291;52.250;21.228;2022-08-11T10:13:43;101139.71;;;31.01;33.26
36254;BME280;22291;52.250;21.228;2022-08-11T10:16:31;101140.86;;;30.72;33.08
36254;BME280;22291;52.250;21.228;2022-08-11T10:19:02;101130.95;;;30.35;33.20
36254;BME280;22291;52.250;21.228;2022-08-11T10:24:07;101134.16;;;30.46;34.80
36254;BME280;22291;52.250;21.228;2022-08-11T10:26:54;101126.99;;;30.77;34.49
36254;BME280;22291;52.250;21.228;2022-08-11T10:29:26;101116.03;;;31.26;34.39
36254;BME280;22291;52.250;21.228;2022-08-11T10:32:27;101117.55;;;31.83;34.36
36254;BME280;22291;52.250;21.228;2022-08-11T10:35:17;101114.59;;;32.15;32.75
36254;BME280;22291;52.250;21.228;2022-08-11T10:37:46;101109.59;;;31.90;31.80
36254;BME280;22291;52.250;21.228;2022-08-11T10:40:15;101114.04;;;31.63;32.29
36254;BME280;22291;52.250;21.228;2022-08-11T10:42:43;101106.64;;;31.81;32.64
36254;BME280;22291;52.250;21.228;2022-08-11T10:45:41;101092.99;;;32.08;32.18
36254;BME280;22291;52.250;21.228;2022-08-11T10:48:27;101097.71;;;32.19;31.53
36254;BME280;22291;52.250;21.228;2022-08-11T10:50:55;101086.00;;;31.83;30.99
36254;BME280;22291;52.250;21.228;2022-08-11T10:53:44;101090.80;;;31.58;31.22
36254;BME280;22291;52.250;21.228;2022-08-11T10:56:36;101080.77;;;31.60;31.61
36254;BME280;22291;52.250;21.228;2022-08-11T10:59:25;101082.34;;;31.86;31.88
36254;BME280;22291;52.250;21.228;2022-08-11T11:01:53;101074.35;;;32.26;31.44
36254;BME280;22291;52.250;21.228;2022-08-11T11:07:16;101074.39;;;32.38;30.75
36254;BME280;22291;52.250;21.228;2022-08-11T11:10:06;101075.24;;;32.06;30.68
36254;BME280;22291;52.250;21.228;2022-08-11T11:12:38;101072.09;;;32.12;30.91
36254;BME280;22291;52.250;21.228;2022-08-11T11:15:25;101063.90;;;32.43;30.90
36254;BME280;22291;52.250;21.228;2022-08-11T11:18:21;101060.73;;;32.78;31.31
36254;BME280;22291;52.250;21.228;2022-08-11T11:21:14;101053.09;;;33.12;30.88
36254;BME280;22291;52.250;21.228;2022-08-11T11:24:16;101066.28;;;33.59;30.46
36254;BME280;22291;52.250;21.228;2022-08-11T11:30:05;101046.72;;;34.11;29.92
36254;BME280;22291;52.250;21.228;2022-08-11T11:32:43;101047.09;;;34.35;29.37
36254;BME280;22291;52.250;21.228;2022-08-11T11:35:24;101052.00;;;34.09;28.40
36254;BME280;22291;52.250;21.228;2022-08-11T11:38:26;101068.94;;;33.88;27.94
36254;BME280;22291;52.250;21.228;2022-08-11T11:40:54;101041.69;;;33.20;27.98
36254;BME280;22291;52.250;21.228;2022-08-11T11:43:41;101032.95;;;33.18;28.84
36254;BME280;22291;52.250;21.228;2022-08-11T11:46:08;101035.47;;;33.46;28.76
36254;BME280;22291;52.250;21.228;2022-08-11T11:48:36;101033.28;;;33.20;28.69
36254;BME280;22291;52.250;21.228;2022-08-11T11:51:04;101035.30;;;32.85;29.46
36254;BME280;22291;52.250;21.228;2022-08-11T11:53:31;101040.75;;;32.34;29.29
36254;BME280;22291;52.250;21.228;2022-08-11T11:55:58;101029.02;;;31.77;29.93
36254;BME280;22291;52.250;21.228;2022-08-11T11:58:26;101028.63;;;31.25;30.04
36254;BME280;22291;52.250;21.228;2022-08-11T12:01:12;101023.69;;;30.77;30.73
36254;BME280;22291;52.250;21.228;2022-08-11T12:03:48;101035.97;;;30.19;31.48
36254;BME280;22291;52.250;21.228;2022-08-11T12:06:18;101021.11;;;29.67;31.95
36254;BME280;22291;52.250;21.228;2022-08-11T12:08:48;101024.47;;;29.31;32.39
36254;BME280;22291;52.250;21.228;2022-08-11T12:11:18;101016.11;;;29.31;33.95
36254;BME280;22291;52.250;21.228;2022-08-11T12:14:06;101017.64;;;29.59;34.94
36254;BME280;22291;52.250;21.228;2022-08-11T12:16:36;101006.58;;;30.03;34.70
36254;BME280;22291;52.250;21.228;2022-08-11T12:19:14;100996.52;;;30.41;34.46
36254;BME280;22291;52.250;21.228;2022-08-11T12:21:39;100998.77;;;30.86;34.44
36254;BME280;22291;52.250;21.228;2022-08-11T12:24:10;101004.19;;;31.21;33.60
36254;BME280;22291;52.250;21.228;2022-08-11T12:26:56;101004.45;;;31.27;32.20
36254;BME280;22291;52.250;21.228;2022-08-11T12:29:47;100995.34;;;31.06;31.43
36254;BME280;22291;52.250;21.228;2022-08-11T12:32:18;101003.09;;;30.70;31.03
36254;BME280;22291;52.250;21.228;2022-08-11T12:34:46;101002.42;;;30.23;30.91
36254;BME280;22291;52.250;21.228;2022-08-11T12:37:15;101008.64;;;29.75;31.42
36254;BME280;22291;52.250;21.228;2022-08-11T12:39:46;101012.63;;;29.23;31.55
36254;BME280;22291;52.250;21.228;2022-08-11T12:42:33;101010.83;;;28.78;32.22
36254;BME280;22291;52.250;21.228;2022-08-11T12:45:25;101005.15;;;28.36;32.40
36254;BME280;22291;52.250;21.228;2022-08-11T12:48:08;101009.70;;;28.00;33.21
36254;BME280;22291;52.250;21.228;2022-08-11T12:51:01;101009.48;;;27.76;33.93
36254;BME280;22291;52.250;21.228;2022-08-11T12:53:59;101005.34;;;27.46;34.77
36254;BME280;22291;52.250;21.228;2022-08-11T12:56:27;101004.87;;;27.25;35.24
36254;BME280;22291;52.250;21.228;2022-08-11T12:59:15;101007.16;;;27.08;35.19
36254;BME280;22291;52.250;21.228;2022-08-11T13:02:01;101003.27;;;26.94;35.83
36254;BME280;22291;52.250;21.228;2022-08-11T13:04:47;101001.92;;;26.87;35.78
36254;BME280;22291;52.250;21.228;2022-08-11T13:07:19;101002.13;;;26.81;36.46
36254;BME280;22291;52.250;21.228;2022-08-11T13:09:46;101001.38;;;26.77;36.58
36254;BME280;22291;52.250;21.228;2022-08-11T13:12:14;101001.00;;;26.68;36.65
36254;BME280;22291;52.250;21.228;2022-08-11T13:15:01;100994.88;;;26.68;37.16
36254;BME280;22291;52.250;21.228;2022-08-11T13:17:28;100995.14;;;26.92;37.03
36254;BME280;22291;52.250;21.228;2022-08-11T13:19:59;101002.80;;;27.07;36.50
36254;BME280;22291;52.250;21.228;2022-08-11T13:22:26;101005.95;;;27.09;36.61
36254;BME280;22291;52.250;21.228;2022-08-11T13:24:53;101009.98;;;26.97;36.38
36254;BME280;22291;52.250;21.228;2022-08-11T13:27:21;101007.91;;;26.78;36.62
36254;BME280;22291;52.250;21.228;2022-08-11T13:29:50;101001.81;;;26.68;37.15
36254;BME280;22291;52.250;21.228;2022-08-11T13:32:19;100993.69;;;26.58;37.18
36254;BME280;22291;52.250;21.228;2022-08-11T13:34:48;100991.73;;;26.52;37.71
36254;BME280;22291;52.250;21.228;2022-08-11T13:37:15;100995.89;;;26.52;37.76
36254;BME280;22291;52.250;21.228;2022-08-11T13:39:44;100997.88;;;26.51;37.82
36254;BME280;22291;52.250;21.228;2022-08-11T13:42:14;100999.25;;;26.47;38.03
36254;BME280;22291;52.250;21.228;2022-08-11T13:44:43;101002.45;;;26.46;38.48
36254;BME280;22291;52.250;21.228;2022-08-11T13:47:12;100997.52;;;26.38;38.39
36254;BME280;22291;52.250;21.228;2022-08-11T13:49:39;100992.58;;;26.27;38.67
36254;BME280;22291;52.250;21.228;2022-08-11T13:52:14;100995.58;;;26.24;39.05
36254;BME280;22291;52.250;21.228;2022-08-11T13:54:43;100991.20;;;26.23;38.94
36254;BME280;22291;52.250;21.228;2022-08-11T13:57:13;100984.27;;;26.23;39.27
36254;BME280;22291;52.250;21.228;2022-08-11T13:59:45;100983.69;;;26.27;39.48
36254;BME280;22291;52.250;21.228;2022-08-11T14:02:16;100987.24;;;26.28;39.31
36254;BME280;22291;52.250;21.228;2022-08-11T14:04:50;100985.47;;;26.26;38.80
36254;BME280;22291;52.250;21.228;2022-08-11T14:07:17;100978.34;;;26.21;39.20
36254;BME280;22291;52.250;21.228;2022-08-11T14:09:54;100987.29;;;26.14;38.91
36254;BME280;22291;52.250;21.228;2022-08-11T14:12:29;100984.91;;;26.05;38.84
36254;BME280;22291;52.250;21.228;2022-08-11T14:15:30;100991.83;;;25.94;39.03
36254;BME280;22291;52.250;21.228;2022-08-11T14:17:57;100995.20;;;25.76;39.34
36254;BME280;22291;52.250;21.228;2022-08-11T14:20:36;100996.59;;;25.65;39.82
36254;BME280;22291;52.250;21.228;2022-08-11T14:23:36;101000.94;;;25.59;40.13
36254;BME280;22291;52.250;21.228;2022-08-11T14:26:07;101004.70;;;25.49;40.39
36254;BME280;22291;52.250;21.228;2022-08-11T14:28:54;101000.37;;;25.59;40.74
36254;BME280;22291;52.250;21.228;2022-08-11T14:31:30;101004.51;;;25.77;40.89
36254;BME280;22291;52.250;21.228;2022-08-11T14:34:04;101003.55;;;25.97;41.02
36254;BME280;22291;52.250;21.228;2022-08-11T14:36:39;100998.77;;;26.01;40.38
36254;BME280;22291;52.250;21.228;2022-08-11T14:39:15;100990.05;;;25.92;40.16
36254;BME280;22291;52.250;21.228;2022-08-11T14:41:43;100986.70;;;25.82;40.12
36254;BME280;22291;52.250;21.228;2022-08-11T14:44:37;100982.34;;;25.81;40.29
36254;BME280;22291;52.250;21.228;2022-08-11T14:47:25;100978.00;;;25.80;40.59
36254;BME280;22291;52.250;21.228;2022-08-11T14:49:54;100974.43;;;25.72;40.44
36254;BME280;22291;52.250;21.228;2022-08-11T14:52:21;100981.36;;;25.68;40.87
36254;BME280;22291;52.250;21.228;2022-08-11T14:54:50;100973.84;;;25.83;41.01
36254;BME280;22291;52.250;21.228;2022-08-11T14:57:38;100971.66;;;26.01;40.46
36254;BME280;22291;52.250;21.228;2022-08-11T15:00:08;100965.50;;;26.05;40.31
36254;BME280;22291;52.250;21.228;2022-08-11T15:02:38;100971.86;;;26.05;40.30
36254;BME280;22291;52.250;21.228;2022-08-11T15:05:25;100968.09;;;26.07;40.12
36254;BME280;22291;52.250;21.228;2022-08-11T15:07:54;100970.28;;;26.01;40.15
36254;BME280;22291;52.250;21.228;2022-08-11T15:10:22;100964.71;;;26.08;40.45
36254;BME280;22291;52.250;21.228;2022-08-11T15:12:50;100967.06;;;26.24;40.46
36254;BME280;22291;52.250;21.228;2022-08-11T15:15:18;100966.81;;;26.41;40.22
36254;BME280;22291;52.250;21.228;2022-08-11T15:18:09;100968.14;;;26.55;39.73
36254;BME280;22291;52.250;21.228;2022-08-11T15:20:39;100961.97;;;26.70;39.47
36254;BME280;22291;52.250;21.228;2022-08-11T15:23:24;100963.28;;;26.81;38.77
36254;BME280;22291;52.250;21.228;2022-08-11T15:26:17;100960.31;;;26.80;38.56
36254;BME280;22291;52.250;21.228;2022-08-11T15:29:22;100961.70;;;26.80;38.69
36254;BME280;22291;52.250;21.228;2022-08-11T15:32:09;100969.02;;;26.86;38.61
36254;BME280;22291;52.250;21.228;2022-08-11T15:34:58;100963.88;;;26.84;38.45
36254;BME280;22291;52.250;21.228;2022-08-11T15:37:45;100953.55;;;26.84;38.19
36254;BME280;22291;52.250;21.228;2022-08-11T15:40:17;100939.50;;;26.80;37.93
36254;BME280;22291;52.250;21.228;2022-08-11T15:43:28;100946.86;;;26.78;37.79
36254;BME280;22291;52.250;21.228;2022-08-11T15:46:40;100947.64;;;26.79;37.81
36254;BME280;22291;52.250;21.228;2022-08-11T15:49:14;100944.47;;;26.80;37.59
36254;BME280;22291;52.250;21.228;2022-08-11T15:52:09;100933.75;;;26.82;37.44
36254;BME280;22291;52.250;21.228;2022-08-11T15:54:41;100943.66;;;26.83;37.11
36254;BME280;22291;52.250;21.228;2022-08-11T15:57:09;100944.06;;;26.82;37.21
36254;BME280;22291;52.250;21.228;2022-08-11T15:59:41;100946.23;;;26.82;36.96
36254;BME280;22291;52.250;21.228;2022-08-11T16:02:26;100946.61;;;26.84;37.01
36254;BME280;22291;52.250;21.228;2022-08-11T16:05:13;100943.23;;;26.85;36.87
36254;BME280;22291;52.250;21.228;2022-08-11T16:07:43;100937.28;;;26.87;36.76
36254;BME280;22291;52.250;21.228;2022-08-11T16:10:14;100937.48;;;26.88;36.73
36254;BME280;22291;52.250;21.228;2022-08-11T16:13:02;100935.52;;;26.84;36.75
36254;BME280;22291;52.250;21.228;2022-08-11T16:15:30;100938.52;;;26.82;36.53
36254;BME280;22291;52.250;21.228;2022-08-11T16:18:22;100933.56;;;26.78;36.31
36254;BME280;22291;52.250;21.228;2022-08-11T16:20:54;100939.37;;;26.72;36.40
36254;BME280;22291;52.250;21.228;2022-08-11T16:23:22;100933.64;;;26.67;36.51
36254;BME280;22291;52.250;21.228;2022-08-11T16:25:52;100928.67;;;26.59;36.65
36254;BME280;22291;52.250;21.228;2022-08-11T16:28:21;100931.09;;;26.54;36.87
36254;BME280;22291;52.250;21.228;2022-08-11T16:30:48;100930.14;;;26.45;36.60
36254;BME280;22291;52.250;21.228;2022-08-11T16:33:17;100928.20;;;26.35;36.60
36254;BME280;22291;52.250;21.228;2022-08-11T16:35:47;100933.58;;;26.26;36.54
36254;BME280;22291;52.250;21.228;2022-08-11T16:38:33;100928.66;;;26.15;36.47
36254;BME280;22291;52.250;21.228;2022-08-11T16:41:07;100930.46;;;26.06;36.59
36254;BME280;22291;52.250;21.228;2022-08-11T16:43:38;100930.28;;;25.98;36.76
36254;BME280;22291;52.250;21.228;2022-08-11T16:46:24;100927.50;;;25.91;36.74
36254;BME280;22291;52.250;21.228;2022-08-11T16:49:14;100923.58;;;25.81;36.98
36254;BME280;22291;52.250;21.228;2022-08-11T16:51:43;100928.93;;;25.73;37.04
36254;BME280;22291;52.250;21.228;2022-08-11T16:54:10;100935.84;;;25.66;37.47
36254;BME280;22291;52.250;21.228;2022-08-11T16:59:21;100933.31;;;25.49;38.26
36254;BME280;22291;52.250;21.228;2022-08-11T17:02:05;100929.13;;;25.42;38.57
36254;BME280;22291;52.250;21.228;2022-08-11T17:07:37;100924.77;;;25.30;39.08
36254;BME280;22291;52.250;21.228;2022-08-11T17:10:35;100920.59;;;25.19;38.93
36254;BME280;22291;52.250;21.228;2022-08-11T17:13:34;100935.03;;;25.15;39.25